Time;durP1;ratioP1;P1;durP2;ratioP2;P2;SDS_P1;SDS_P2;PMS_P1;PMS_P2;Temp;Humidity;BMP_temperature;BMP_pressure;BME280_temperature;BME280_humidity;BME280_pressure;Samples;Min_cycle;Max_cycle;Signal;HPM_P1;HPM_P2
2022/12/01 00:02:03;;;;;;;12.02;11.10;;;;;;;;;;4990102;28;20026;-61
2022/12/01 00:04:29;;;;;;;13.23;12.23;;;;;;;;;;4994101;28;20038;-60
2022/12/01 00:06:54;;;;;;;12.45;11.55;;;;;;;;;;4995399;28;20163;-61
2022/12/01 00:12:03;;;;;;;13.15;11.95;;;;;;;;;;4993263;28;20716;-60
2022/12/01 00:14:29;;;;;;;11.38;10.48;;;;;;;;;;4993117;28;20440;-60
2022/12/01 00:16:54;;;;;;;13.93;12.80;;;;;;;;;;5000149;28;20354;-60
2022/12/01 00:19:24;;;;;;;12.38;11.38;;;;;;;;;;4995972;28;20125;-61
2022/12/01 00:21:49;;;;;;;12.85;11.98;;;;;;;;;;4992752;28;20034;-60
2022/12/01 00:24:15;;;;;;;12.40;11.40;;;;;;;;;;4996027;28;20037;-61
2022/12/01 00:26:40;;;;;;;11.98;10.98;;;;;;;;;;4997508;28;20034;-60
2022/12/01 00:29:05;;;;;;;12.60;11.63;;;;;;;;;;4996720;28;20141;-60
2022/12/01 00:31:31;;;;;;;12.27;11.32;;;;;;;;;;4996612;28;20034;-60
2022/12/01 00:33:56;;;;;;;14.18;13.18;;;;;;;;;;4998099;28;20096;-60
2022/12/01 00:36:22;;;;;;;13.60;12.60;;;;;;;;;;4996517;28;20045;-60
2022/12/01 00:38:54;;;;;;;11.90;11.00;;;;;;;;;;4996256;28;20035;-61
2022/12/01 00:41:20;;;;;;;11.52;10.73;;;;;;;;;;5000373;28;20121;-61
2022/12/01 00:43:46;;;;;;;12.60;11.70;;;;;;;;;;4999721;28;20037;-61
2022/12/01 00:46:11;;;;;;;14.32;12.95;;;;;;;;;;4995947;28;20026;-60
2022/12/01 00:48:37;;;;;;;13.50;12.35;;;;;;;;;;4995810;28;20034;-61
2022/12/01 00:51:03;;;;;;;13.02;12.00;;;;;;;;;;4998138;28;20034;-61
2022/12/01 00:53:29;;;;;;;12.73;11.57;;;;;;;;;;5001297;28;20088;-60
2022/12/01 00:55:55;;;;;;;12.38;11.48;;;;;;;;;;4998967;28;20038;-60
2022/12/01 00:58:21;;;;;;;12.30;11.18;;;;;;;;;;4996876;28;20430;-60
2022/12/01 01:00:46;;;;;;;14.65;13.48;;;;;;;;;;4995951;28;20029;-61
2022/12/01 01:03:11;;;;;;;13.52;12.50;;;;;;;;;;4998065;28;20061;-61
2022/12/01 01:05:38;;;;;;;13.45;12.43;;;;;;;;;;4994457;28;20070;-60
2022/12/01 01:08:12;;;;;;;13.38;12.43;;;;;;;;;;4997055;28;20482;-60
2022/12/01 01:10:38;;;;;;;15.40;12.82;;;;;;;;;;4993679;28;20041;-60
2022/12/01 01:13:04;;;;;;;13.80;12.65;;;;;;;;;;4994467;28;20113;-62
2022/12/01 01:15:29;;;;;;;12.68;11.80;;;;;;;;;;4996731;28;20133;-60
2022/12/01 01:17:54;;;;;;;11.27;10.38;;;;;;;;;;4997018;28;20120;-60
2022/12/01 01:20:20;;;;;;;13.23;12.32;;;;;;;;;;4996217;28;20042;-60
2022/12/01 01:22:45;;;;;;;13.40;12.40;;;;;;;;;;4996294;28;20116;-60
2022/12/01 01:25:11;;;;;;;11.75;10.95;;;;;;;;;;4996848;28;20129;-60
2022/12/01 01:27:36;;;;;;;13.07;12.07;;;;;;;;;;4993792;28;20432;-60
2022/12/01 01:30:02;;;;;;;12.77;11.68;;;;;;;;;;4999675;28;20034;-60
2022/12/01 01:32:28;;;;;;;12.88;11.98;;;;;;;;;;4997164;28;20044;-61
2022/12/01 01:34:53;;;;;;;11.98;11.07;;;;;;;;;;4994093;28;20500;-60
2022/12/01 01:37:18;;;;;;;12.32;11.25;;;;;;;;;;4996215;28;20554;-60
2022/12/01 01:39:44;;;;;;;13.07;11.98;;;;;;;;;;4996057;28;20093;-60
2022/12/01 01:42:12;;;;;;;10.73;9.93;;;;;;;;;;4993700;28;20026;-60
2022/12/01 01:44:50;;;;;;;12.88;11.55;;;;;;;;;;4995334;28;20042;-61
2022/12/01 01:47:35;;;;;;;12.45;11.23;;;;;;;;;;4996025;28;20031;-60
2022/12/01 01:50:07;;;;;;;11.73;10.90;;;;;;;;;;4996128;28;20405;-62
2022/12/01 01:52:59;;;;;;;12.00;10.93;;;;;;;;;;4996185;28;20060;-61
2022/12/01 01:55:25;;;;;;;10.93;10.15;;;;;;;;;;4995556;28;20068;-61
2022/12/01 01:57:50;;;;;;;13.55;12.55;;;;;;;;;;4997457;28;20429;-60
2022/12/01 02:00:18;;;;;;;14.68;12.32;;;;;;;;;;4993458;28;20040;-60
2022/12/01 02:02:45;;;;;;;12.57;11.57;;;;;;;;;;4994528;28;20017;-60
2022/12/01 02:05:16;;;;;;;12.82;11.93;;;;;;;;;;4997471;28;20034;-60
2022/12/01 02:07:42;;;;;;;13.38;12.32;;;;;;;;;;4996467;28;20377;-59
2022/12/01 02:10:11;;;;;;;12.82;11.93;;;;;;;;;;4996511;28;20041;-59
2022/12/01 02:13:10;;;;;;;11.95;10.88;;;;;;;;;;4994978;28;20037;-60
2022/12/01 02:15:44;;;;;;;13.10;11.98;;;;;;;;;;4995885;28;20076;-59
2022/12/01 02:18:24;;;;;;;12.38;11.57;;;;;;;;;;4995841;28;20030;-59
2022/12/01 02:21:27;;;;;;;12.95;12.05;;;;;;;;;;4998500;28;20475;-59
2022/12/01 02:24:14;;;;;;;15.45;12.05;;;;;;;;;;4997725;28;20136;-59
2022/12/01 02:26:55;;;;;;;14.38;13.05;;;;;;;;;;4996428;28;20034;-60
2022/12/01 02:29:40;;;;;;;11.65;10.85;;;;;;;;;;4995076;28;20109;-59
2022/12/01 02:32:27;;;;;;;12.85;11.80;;;;;;;;;;4996043;28;20030;-58
2022/12/01 02:35:13;;;;;;;12.77;11.88;;;;;;;;;;4994986;28;20084;-59
2022/12/01 02:37:56;;;;;;;12.55;11.63;;;;;;;;;;4995397;28;20030;-59
2022/12/01 02:40:32;;;;;;;13.38;12.35;;;;;;;;;;4996595;28;20041;-59
2022/12/01 02:43:03;;;;;;;12.55;11.55;;;;;;;;;;4994481;28;20181;-60
2022/12/01 02:45:44;;;;;;;15.25;12.18;;;;;;;;;;4995397;28;20031;-60
2022/12/01 02:48:37;;;;;;;14.20;12.95;;;;;;;;;;4996050;28;20034;-59
2022/12/01 02:51:23;;;;;;;12.93;11.82;;;;;;;;;;4990664;28;20460;-59
2022/12/01 02:53:49;;;;;;;11.45;10.65;;;;;;;;;;4996738;28;20034;-59
2022/12/01 02:56:20;;;;;;;11.85;11.02;;;;;;;;;;4993902;28;20478;-60
2022/12/01 02:58:45;;;;;;;;;;;;;;;;;;4995046;28;20037;-59
2022/12/01 03:01:29;;;;;;;12.07;11.15;;;;;;;;;;4995075;28;19914;-59
2022/12/01 03:04:37;;;;;;;13.30;12.18;;;;;;;;;;4992646;28;20695;-59
2022/12/01 03:07:15;;;;;;;12.82;11.82;;;;;;;;;;4995324;28;20204;-60
2022/12/01 03:09:55;;;;;;;12.38;11.45;;;;;;;;;;4995504;28;20030;-60
2022/12/01 03:12:54;;;;;;;13.10;12.15;;;;;;;;;;4993389;28;20539;-59
2022/12/01 03:15:29;;;;;;;15.55;14.25;;;;;;;;;;4997744;28;20041;-59
2022/12/01 03:18:09;;;;;;;12.07;11.15;;;;;;;;;;4992196;28;20704;-59
2022/12/01 03:20:39;;;;;;;11.77;10.98;;;;;;;;;;4995789;28;20365;-59
2022/12/01 03:23:11;;;;;;;12.55;11.57;;;;;;;;;;4991141;28;20092;-60
2022/12/01 03:25:40;;;;;;;12.95;11.65;;;;;;;;;;4994048;28;20026;-59
2022/12/01 03:28:08;;;;;;;15.07;13.07;;;;;;;;;;4992950;28;20111;-59
2022/12/01 03:30:35;;;;;;;13.88;12.85;;;;;;;;;;4996644;28;20092;-61
2022/12/01 03:33:08;;;;;;;12.38;11.48;;;;;;;;;;4997663;28;20048;-59
2022/12/01 03:35:37;;;;;;;14.15;12.82;;;;;;;;;;4994783;28;20033;-61
2022/12/01 03:38:25;;;;;;;12.80;11.57;;;;;;;;;;4991980;28;20034;-60
2022/12/01 03:40:57;;;;;;;12.32;11.40;;;;;;;;;;4995668;28;20052;-61
2022/12/01 03:43:30;;;;;;;13.55;12.30;;;;;;;;;;4995207;28;20064;-60
2022/12/01 03:46:09;;;;;;;12.10;11.13;;;;;;;;;;4994826;28;20547;-61
2022/12/01 03:48:37;;;;;;;12.35;11.30;;;;;;;;;;4992817;28;20396;-60
2022/12/01 03:51:17;;;;;;;12.25;11.45;;;;;;;;;;4996892;28;20038;-60
2022/12/01 03:53:46;;;;;;;12.60;11.63;;;;;;;;;;4997978;28;20109;-61
2022/12/01 03:56:13;;;;;;;13.77;12.48;;;;;;;;;;4997049;28;20060;-61
2022/12/01 03:58:44;;;;;;;12.60;11.40;;;;;;;;;;4996329;28;20030;-60
2022/12/01 04:01:10;;;;;;;13.60;12.40;;;;;;;;;;4995391;28;20034;-60
2022/12/01 04:03:36;;;;;;;11.20;10.35;;;;;;;;;;4993165;28;20655;-60
2022/12/01 04:06:02;;;;;;;13.35;12.45;;;;;;;;;;5000734;28;20058;-60
2022/12/01 04:08:29;;;;;;;11.13;10.32;;;;;;;;;;5000983;28;20041;-60
2022/12/01 04:10:55;;;;;;;12.07;11.10;;;;;;;;;;4999165;28;20105;-60
2022/12/01 04:13:24;;;;;;;11.27;10.38;;;;;;;;;;4998726;28;20042;-60
2022/12/01 04:15:51;;;;;;;12.32;11.30;;;;;;;;;;4998160;28;20058;-61
2022/12/01 04:18:17;;;;;;;13.15;12.13;;;;;;;;;;4996877;28;20624;-61
2022/12/01 04:20:47;;;;;;;11.50;10.60;;;;;;;;;;4996381;28;20079;-60
2022/12/01 04:26:03;;;;;;;11.98;11.07;;;;;;;;;;4997723;28;20157;-60
2022/12/01 04:28:29;;;;;;;12.50;11.63;;;;;;;;;;4996444;28;20065;-60
2022/12/01 04:30:54;;;;;;;11.60;10.77;;;;;;;;;;4995242;28;20070;-60
2022/12/01 04:33:20;;;;;;;13.25;12.25;;;;;;;;;;4999834;28;20066;-60
2022/12/01 04:35:55;;;;;;;12.55;11.55;;;;;;;;;;4999881;28;20089;-60
2022/12/01 04:38:20;;;;;;;12.73;11.73;;;;;;;;;;4997299;28;20746;-61
2022/12/01 04:40:45;;;;;;;13.77;12.57;;;;;;;;;;4998084;28;20040;-60
2022/12/01 04:43:11;;;;;;;12.35;11.32;;;;;;;;;;4998099;28;20022;-60
2022/12/01 04:45:37;;;;;;;12.30;11.40;;;;;;;;;;4995098;28;20065;-60
2022/12/01 04:48:02;;;;;;;13.10;12.00;;;;;;;;;;4995897;28;20542;-60
2022/12/01 04:50:29;;;;;;;14.15;13.02;;;;;;;;;;4998502;28;20033;-60
2022/12/01 04:52:55;;;;;;;13.15;12.07;;;;;;;;;;4996826;28;20253;-59
2022/12/01 04:55:21;;;;;;;11.00;10.25;;;;;;;;;;4997777;28;20048;-60
2022/12/01 04:57:46;;;;;;;12.82;11.82;;;;;;;;;;5000078;28;20042;-60
2022/12/01 05:00:13;;;;;;;14.38;13.38;;;;;;;;;;4998172;28;20056;-59
2022/12/01 05:02:42;;;;;;;12.38;11.48;;;;;;;;;;4995094;28;20034;-59
2022/12/01 05:05:08;;;;;;;11.50;10.63;;;;;;;;;;4997814;28;20041;-60
2022/12/01 05:07:33;;;;;;;12.40;11.40;;;;;;;;;;4997222;28;20333;-60
2022/12/01 05:09:59;;;;;;;13.48;12.48;;;;;;;;;;4997878;28;20025;-59
2022/12/01 05:12:24;;;;;;;13.10;12.20;;;;;;;;;;4983377;28;20310;-60
2022/12/01 05:14:49;;;;;;;12.05;11.25;;;;;;;;;;4997455;28;20030;-61
2022/12/01 05:17:15;;;;;;;16.08;12.90;;;;;;;;;;4997418;28;20474;-60
2022/12/01 05:22:24;;;;;;;13.20;12.13;;;;;;;;;;4996262;28;20487;-60
2022/12/01 05:24:50;;;;;;;14.07;12.98;;;;;;;;;;4994955;28;20069;-61
2022/12/01 05:27:15;;;;;;;12.20;11.25;;;;;;;;;;4997068;28;20037;-61
2022/12/01 05:29:40;;;;;;;11.55;10.65;;;;;;;;;;4996102;28;20129;-60
2022/12/01 05:32:06;;;;;;;13.25;12.15;;;;;;;;;;4995057;28;20061;-60
2022/12/01 05:34:31;;;;;;;13.52;12.40;;;;;;;;;;4996078;28;20133;-60
2022/12/01 05:36:56;;;;;;;12.32;11.40;;;;;;;;;;4994532;28;20833;-60
2022/12/01 05:39:22;;;;;;;11.75;10.82;;;;;;;;;;4994802;28;20030;-60
2022/12/01 05:41:47;;;;;;;12.93;11.88;;;;;;;;;;4994029;28;20038;-60
2022/12/01 05:44:12;;;;;;;15.00;13.60;;;;;;;;;;4993644;28;20030;-60
2022/12/01 05:46:38;;;;;;;16.27;14.88;;;;;;;;;;4994793;28;20042;-60
2022/12/01 05:49:04;;;;;;;15.43;14.27;;;;;;;;;;5002781;28;20029;-60
2022/12/01 05:51:30;;;;;;;16.30;15.10;;;;;;;;;;4993017;28;20084;-61
2022/12/01 05:53:58;;;;;;;16.30;14.73;;;;;;;;;;4996235;28;20050;-61
2022/12/01 05:56:23;;;;;;;12.98;12.07;;;;;;;;;;4994468;28;20038;-60
2022/12/01 05:58:49;;;;;;;24.35;22.08;;;;;;;;;;4996086;28;20064;-60
2022/12/01 06:01:14;;;;;;;24.10;22.00;;;;;;;;;;4994153;28;20030;-61
2022/12/01 06:03:40;;;;;;;14.02;12.82;;;;;;;;;;5003469;28;20030;-60
2022/12/01 06:06:05;;;;;;;14.60;13.50;;;;;;;;;;4994468;28;20037;-60
2022/12/01 06:08:30;;;;;;;13.93;12.80;;;;;;;;;;4993758;28;20031;-60
2022/12/01 06:10:56;;;;;;;14.05;13.15;;;;;;;;;;4993879;28;20034;-61
2022/12/01 06:13:21;;;;;;;13.60;12.57;;;;;;;;;;4993606;28;20042;-60
2022/12/01 06:16:02;;;;;;;13.98;12.98;;;;;;;;;;4994741;28;20045;-60
2022/12/01 06:18:29;;;;;;;12.23;11.32;;;;;;;;;;4993438;28;20030;-60
2022/12/01 06:20:55;;;;;;;18.60;12.20;;;;;;;;;;4997326;28;20099;-60
2022/12/01 06:23:21;;;;;;;14.95;12.77;;;;;;;;;;4996155;28;20034;-60
2022/12/01 06:25:47;;;;;;;11.77;10.88;;;;;;;;;;4993654;28;20092;-59
2022/12/01 06:28:12;;;;;;;11.52;10.73;;;;;;;;;;4992901;28;20029;-60
2022/12/01 06:30:37;;;;;;;11.50;10.70;;;;;;;;;;4993040;28;20042;-59
2022/12/01 06:33:03;;;;;;;13.73;12.73;;;;;;;;;;4991759;28;20034;-58
2022/12/01 06:35:28;;;;;;;12.38;11.38;;;;;;;;;;4993535;28;20396;-58
2022/12/01 06:37:53;;;;;;;10.80;10.07;;;;;;;;;;4994571;28;20026;-58
2022/12/01 06:40:19;;;;;;;12.68;11.60;;;;;;;;;;4994377;28;20072;-58
2022/12/01 06:42:44;;;;;;;12.73;11.82;;;;;;;;;;4988797;28;20030;-58
2022/12/01 06:45:10;;;;;;;12.07;11.18;;;;;;;;;;4993971;28;20036;-58
2022/12/01 06:47:36;;;;;;;12.65;11.40;;;;;;;;;;4992798;28;20166;-58
2022/12/01 06:50:01;;;;;;;11.55;10.75;;;;;;;;;;4990216;28;20578;-58
2022/12/01 06:52:27;;;;;;;11.80;10.95;;;;;;;;;;4992779;28;20025;-58
2022/12/01 06:54:52;;;;;;;12.15;11.25;;;;;;;;;;4992337;28;20045;-59
2022/12/01 06:57:17;;;;;;;13.15;12.05;;;;;;;;;;4994058;28;20034;-59
2022/12/01 06:59:43;;;;;;;13.85;12.75;;;;;;;;;;4990341;28;20113;-58
2022/12/01 07:02:10;;;;;;;12.30;11.40;;;;;;;;;;4993856;28;20399;-60
2022/12/01 07:04:35;;;;;;;10.73;9.90;;;;;;;;;;4993482;28;20045;-58
2022/12/01 07:07:00;;;;;;;13.55;12.45;;;;;;;;;;4992252;28;20030;-58
2022/12/01 07:09:26;;;;;;;11.02;10.27;;;;;;;;;;4994851;28;20022;-57
2022/12/01 07:11:51;;;;;;;12.75;11.80;;;;;;;;;;4991302;28;20042;-58
2022/12/01 07:14:26;;;;;;;11.45;10.60;;;;;;;;;;4995501;28;20042;-56
2022/12/01 07:16:52;;;;;;;12.20;11.40;;;;;;;;;;4994704;28;20026;-57
2022/12/01 07:19:17;;;;;;;10.23;9.52;;;;;;;;;;4992741;28;20046;-54
2022/12/01 07:21:43;;;;;;;11.60;10.80;;;;;;;;;;4992656;28;20045;-57
2022/12/01 07:24:08;;;;;;;10.85;10.07;;;;;;;;;;4994245;28;20034;-56
2022/12/01 07:26:34;;;;;;;13.88;12.80;;;;;;;;;;4999692;28;20038;-57
2022/12/01 07:28:59;;;;;;;24.67;18.25;;;;;;;;;;4996824;28;20064;-56
2022/12/01 07:31:25;;;;;;;20.58;15.60;;;;;;;;;;5002221;28;20044;-54
2022/12/01 07:33:50;;;;;;;16.38;14.82;;;;;;;;;;5001444;28;20121;-56
2022/12/01 07:36:16;;;;;;;11.48;10.38;;;;;;;;;;5002596;28;20029;-56
2022/12/01 07:38:42;;;;;;;11.63;10.82;;;;;;;;;;4998847;28;20034;-57
2022/12/01 07:41:08;;;;;;;10.00;9.30;;;;;;;;;;4999325;28;20057;-59
2022/12/01 07:43:34;;;;;;;10.93;10.05;;;;;;;;;;4999606;28;20033;-55
2022/12/01 07:46:12;;;;;;;13.48;12.43;;;;;;;;;;5000206;28;20471;-57
2022/12/01 07:48:39;;;;;;;10.82;10.02;;;;;;;;;;4997723;28;20041;-57
2022/12/01 07:51:06;;;;;;;10.63;9.82;;;;;;;;;;5000273;28;20104;-57
2022/12/01 07:53:31;;;;;;;11.15;10.10;;;;;;;;;;4999700;28;20061;-56
2022/12/01 07:55:57;;;;;;;9.82;9.00;;;;;;;;;;5002408;28;20073;-54
2022/12/01 07:58:22;;;;;;;9.88;9.10;;;;;;;;;;5006533;28;20034;-54
2022/12/01 08:00:48;;;;;;;12.02;11.02;;;;;;;;;;5000115;28;20506;-56
2022/12/01 08:03:13;;;;;;;10.55;9.85;;;;;;;;;;5000550;28;20499;-56
2022/12/01 08:05:38;;;;;;;9.93;9.23;;;;;;;;;;5000073;28;20037;-56
2022/12/01 08:08:04;;;;;;;11.32;10.52;;;;;;;;;;4999729;28;20034;-55
2022/12/01 08:10:29;;;;;;;10.10;9.40;;;;;;;;;;4999942;28;20418;-56
2022/12/01 08:12:55;;;;;;;9.70;9.00;;;;;;;;;;4998112;28;20030;-55
2022/12/01 08:15:20;;;;;;;9.57;8.77;;;;;;;;;;4997061;28;20034;-55
2022/12/01 08:17:46;;;;;;;10.93;10.13;;;;;;;;;;4999242;28;20653;-56
2022/12/01 08:20:11;;;;;;;10.35;9.55;;;;;;;;;;4992517;28;20451;-55
2022/12/01 08:22:37;;;;;;;11.68;10.85;;;;;;;;;;4998913;28;20350;-57
2022/12/01 08:25:03;;;;;;;11.70;10.63;;;;;;;;;;5001590;28;20044;-56
2022/12/01 08:27:28;;;;;;;11.40;10.50;;;;;;;;;;5002026;28;20319;-55
2022/12/01 08:29:53;;;;;;;10.65;9.77;;;;;;;;;;4996784;28;20026;-56
2022/12/01 08:32:19;;;;;;;9.35;8.75;;;;;;;;;;4996579;28;20041;-57
2022/12/01 08:34:44;;;;;;;11.48;10.63;;;;;;;;;;4995288;28;20045;-56
2022/12/01 08:37:10;;;;;;;10.40;9.45;;;;;;;;;;4996928;28;20474;-57
2022/12/01 08:39:35;;;;;;;10.95;10.05;;;;;;;;;;4996536;28;20067;-56
2022/12/01 08:42:00;;;;;;;10.48;9.77;;;;;;;;;;4994231;28;20034;-54
2022/12/01 08:44:26;;;;;;;11.60;10.80;;;;;;;;;;4991877;28;20030;-55
2022/12/01 08:46:51;;;;;;;10.38;9.68;;;;;;;;;;4998029;28;20029;-53
2022/12/01 08:49:17;;;;;;;10.30;9.60;;;;;;;;;;4995816;28;20503;-55
2022/12/01 08:51:42;;;;;;;10.82;10.02;;;;;;;;;;4991212;28;20070;-53
2022/12/01 08:54:10;;;;;;;12.00;11.20;;;;;;;;;;4994952;28;20117;-55
2022/12/01 08:56:42;;;;;;;12.30;11.48;;;;;;;;;;4995706;28;20066;-54
2022/12/01 08:59:08;;;;;;;10.55;9.85;;;;;;;;;;4995486;28;20496;-56
2022/12/01 09:01:34;;;;;;;12.02;11.13;;;;;;;;;;4996618;28;20046;-54
2022/12/01 09:04:04;;;;;;;12.43;11.38;;;;;;;;;;4994510;28;20088;-55
2022/12/01 09:06:31;;;;;;;11.40;10.70;;;;;;;;;;4993871;28;20030;-55
2022/12/01 09:09:00;;;;;;;13.55;12.55;;;;;;;;;;4994991;28;20025;-55
2022/12/01 09:11:25;;;;;;;11.85;11.07;;;;;;;;;;4994720;28;20025;-55
2022/12/01 09:13:51;;;;;;;10.93;10.05;;;;;;;;;;4994449;28;20037;-52
2022/12/01 09:16:17;;;;;;;12.15;11.15;;;;;;;;;;4983326;28;20038;-53
2022/12/01 09:18:44;;;;;;;12.00;11.20;;;;;;;;;;4991963;28;20076;-54
2022/12/01 09:21:21;;;;;;;12.07;11.23;;;;;;;;;;4991208;28;20547;-54
2022/12/01 09:23:47;;;;;;;12.30;11.48;;;;;;;;;;4991053;28;21085;-57
2022/12/01 09:26:17;;;;;;;12.38;11.38;;;;;;;;;;4992252;28;20777;-54
2022/12/01 09:28:43;;;;;;;13.82;12.93;;;;;;;;;;4994508;28;20137;-53
2022/12/01 09:31:10;;;;;;;13.43;12.52;;;;;;;;;;4990000;28;20124;-51
2022/12/01 09:33:35;;;;;;;12.40;11.57;;;;;;;;;;4994121;28;20385;-54
2022/12/01 09:36:02;;;;;;;11.73;10.93;;;;;;;;;;4989113;28;20073;-55
2022/12/01 09:38:28;;;;;;;13.18;12.27;;;;;;;;;;4991869;28;20732;-50
2022/12/01 09:40:55;;;;;;;12.95;12.07;;;;;;;;;;4992426;28;20038;-55
2022/12/01 09:43:24;;;;;;;12.27;11.48;;;;;;;;;;4992347;28;20033;-56
2022/12/01 09:46:01;;;;;;;13.15;12.15;;;;;;;;;;4989458;28;20042;-54
2022/12/01 09:48:33;;;;;;;11.75;10.95;;;;;;;;;;4990430;28;20534;-57
2022/12/01 09:50:58;;;;;;;12.27;11.48;;;;;;;;;;4992654;28;20108;-52
2022/12/01 09:53:27;;;;;;;13.15;12.25;;;;;;;;;;4991214;28;20042;-55
2022/12/01 09:55:54;;;;;;;12.10;11.30;;;;;;;;;;4989368;28;20547;-56
2022/12/01 09:58:25;;;;;;;12.27;11.35;;;;;;;;;;4990509;28;20463;-55
2022/12/01 10:00:52;;;;;;;12.77;11.88;;;;;;;;;;4990550;28;20034;-52
2022/12/01 10:03:28;;;;;;;14.02;12.98;;;;;;;;;;4990549;28;20030;-55
2022/12/01 10:06:01;;;;;;;11.73;10.93;;;;;;;;;;4990664;28;20033;-55
2022/12/01 10:08:30;;;;;;;12.00;11.10;;;;;;;;;;4990625;28;20042;-56
2022/12/01 10:11:04;;;;;;;11.70;10.98;;;;;;;;;;4990889;28;20088;-55
2022/12/01 10:13:32;;;;;;;11.60;10.80;;;;;;;;;;4993170;28;20121;-55
2022/12/01 10:16:23;;;;;;;12.18;11.15;;;;;;;;;;4990896;28;20042;-55
2022/12/01 10:18:59;;;;;;;13.73;12.60;;;;;;;;;;4990858;28;20380;-57
2022/12/01 10:22:05;;;;;;;10.85;10.15;;;;;;;;;;4991212;28;20057;-56
2022/12/01 10:25:10;;;;;;;11.23;10.52;;;;;;;;;;4982785;28;20162;-55
2022/12/01 10:27:57;;;;;;;10.95;10.07;;;;;;;;;;4949568;28;20282;-55
2022/12/01 10:30:23;;;;;;;11.68;10.88;;;;;;;;;;4987755;28;20606;-55
2022/12/01 10:32:55;;;;;;;11.85;10.90;;;;;;;;;;4991045;28;20070;-53
2022/12/01 10:35:25;;;;;;;10.82;10.02;;;;;;;;;;4991356;28;20050;-54
2022/12/01 10:37:56;;;;;;;10.13;9.43;;;;;;;;;;4991898;28;20064;-54
2022/12/01 10:40:22;;;;;;;10.40;9.70;;;;;;;;;;4994265;28;20041;-54
2022/12/01 10:42:49;;;;;;;10.80;9.85;;;;;;;;;;4991910;28;20217;-53
2022/12/01 10:45:27;;;;;;;10.77;10.07;;;;;;;;;;4992277;28;20040;-58
2022/12/01 10:48:20;;;;;;;10.82;9.82;;;;;;;;;;4991893;28;20519;-55
2022/12/01 10:50:55;;;;;;;10.38;9.68;;;;;;;;;;4994071;28;20169;-56
2022/12/01 10:53:30;;;;;;;10.23;9.40;;;;;;;;;;4990023;28;20527;-55
2022/12/01 10:56:01;;;;;;;10.60;9.70;;;;;;;;;;4993897;28;20061;-54
2022/12/01 10:58:27;;;;;;;9.75;8.95;;;;;;;;;;4995785;28;20154;-56
2022/12/01 11:00:59;;;;;;;10.63;9.73;;;;;;;;;;4990518;28;20035;-56
2022/12/01 11:03:29;;;;;;;10.32;9.52;;;;;;;;;;4989849;28;20148;-55
2022/12/01 11:06:00;;;;;;;10.20;9.48;;;;;;;;;;4994444;28;20480;-55
2022/12/01 11:08:45;;;;;;;12.38;11.38;;;;;;;;;;4992932;28;20033;-56
2022/12/01 11:11:27;;;;;;;11.27;10.38;;;;;;;;;;4991769;28;20044;-56
2022/12/01 11:13:54;;;;;;;10.50;9.70;;;;;;;;;;4990697;28;20124;-58
2022/12/01 11:16:38;;;;;;;11.48;10.30;;;;;;;;;;4991603;28;20121;-56
2022/12/01 11:19:26;;;;;;;10.75;9.95;;;;;;;;;;4993632;28;20045;-56
2022/12/01 11:21:55;;;;;;;11.07;10.18;;;;;;;;;;4988279;28;20065;-56
2022/12/01 11:24:28;;;;;;;9.23;8.50;;;;;;;;;;4994051;28;20227;-56
2022/12/01 11:26:56;;;;;;;11.95;11.13;;;;;;;;;;4991300;28;20046;-58
2022/12/01 11:29:30;;;;;;;11.13;10.40;;;;;;;;;;4993720;28;20455;-55
2022/12/01 11:31:57;;;;;;;9.93;9.27;;;;;;;;;;4992419;28;20069;-53
2022/12/01 11:34:25;;;;;;;13.43;12.23;;;;;;;;;;4991710;28;20033;-57
2022/12/01 11:36:57;;;;;;;12.65;11.63;;;;;;;;;;4991412;28;20236;-56
2022/12/01 11:39:31;;;;;;;11.52;10.73;;;;;;;;;;4991420;28;20500;-53
2022/12/01 11:42:14;;;;;;;13.45;12.30;;;;;;;;;;4994168;28;20096;-54
2022/12/01 11:44:52;;;;;;;12.50;11.50;;;;;;;;;;4993446;28;20459;-56
2022/12/01 11:47:23;;;;;;;13.80;12.77;;;;;;;;;;4988788;28;20581;-55
2022/12/01 11:50:01;;;;;;;11.50;10.70;;;;;;;;;;4988873;28;20053;-57
2022/12/01 11:52:32;;;;;;;12.48;11.57;;;;;;;;;;4992228;28;20105;-54
2022/12/01 11:55:10;;;;;;;11.02;9.85;;;;;;;;;;4991071;28;20554;-53
2022/12/01 11:57:38;;;;;;;10.38;9.57;;;;;;;;;;4993101;28;20041;-54
2022/12/01 12:00:18;;;;;;;12.30;11.40;;;;;;;;;;4991775;28;20778;-56
2022/12/01 12:03:02;;;;;;;11.15;10.38;;;;;;;;;;4990368;28;20069;-54
2022/12/01 12:05:55;;;;;;;12.38;10.93;;;;;;;;;;4990962;28;20042;-55
2022/12/01 12:09:10;;;;;;;11.52;10.63;;;;;;;;;;4971482;28;20081;-53
2022/12/01 12:11:48;;;;;;;10.63;9.93;;;;;;;;;;4981693;28;20107;-55
2022/12/01 12:14:37;;;;;;;10.48;9.77;;;;;;;;;;4995319;28;20021;-55
2022/12/01 12:17:17;;;;;;;11.15;10.25;;;;;;;;;;4996711;28;21258;-54
2022/12/01 12:20:14;;;;;;;10.63;9.85;;;;;;;;;;4994250;28;20038;-56
2022/12/01 12:23:15;;;;;;;10.95;10.05;;;;;;;;;;5004020;28;20038;-55
2022/12/01 12:25:40;;;;;;;10.83;9.97;;;;;;;;;;4996322;28;20030;-56
2022/12/01 12:28:30;;;;;;;10.15;9.25;;;;;;;;;;4992293;28;20025;-54
2022/12/01 12:31:06;;;;;;;12.05;10.95;;;;;;;;;;4995015;28;20025;-52
2022/12/01 12:34:10;;;;;;;10.88;10.07;;;;;;;;;;4993197;28;20137;-53
2022/12/01 12:36:45;;;;;;;10.88;10.05;;;;;;;;;;4990041;28;20053;-53
2022/12/01 12:39:45;;;;;;;11.70;10.73;;;;;;;;;;4994062;28;20095;-55
2022/12/01 12:42:40;;;;;;;10.88;9.93;;;;;;;;;;4994558;28;20539;-54
2022/12/01 12:45:15;;;;;;;10.98;10.18;;;;;;;;;;4992478;28;20029;-54
2022/12/01 12:48:15;;;;;;;11.25;10.35;;;;;;;;;;4994826;28;20420;-69
2022/12/01 12:50:50;;;;;;;10.25;9.45;;;;;;;;;;4992223;28;20033;-68
2022/12/01 12:53:23;;;;;;;11.75;10.82;;;;;;;;;;4997174;28;20042;-69
2022/12/01 12:55:51;;;;;;;10.20;9.48;;;;;;;;;;4991752;28;20061;-68
2022/12/01 12:58:37;;;;;;;10.85;9.43;;;;;;;;;;4994131;28;20550;-67
2022/12/01 13:01:14;;;;;;;10.95;10.13;;;;;;;;;;4997883;28;20049;-71
2022/12/01 13:03:59;;;;;;;12.10;11.20;;;;;;;;;;4998232;28;20451;-67
2022/12/01 13:06:49;;;;;;;10.43;9.70;;;;;;;;;;4992097;28;20456;-69
2022/12/01 13:09:21;;;;;;;10.00;9.30;;;;;;;;;;4994821;28;20109;-69
2022/12/01 13:11:56;;;;;;;11.93;10.32;;;;;;;;;;4993245;28;20049;-70
2022/12/01 13:14:34;;;;;;;10.38;9.68;;;;;;;;;;4992618;28;20468;-69
2022/12/01 13:17:23;;;;;;;11.30;10.23;;;;;;;;;;4991774;28;20039;-69
2022/12/01 13:19:48;;;;;;;10.27;9.57;;;;;;;;;;4992074;28;20082;-68
2022/12/01 13:22:16;;;;;;;11.57;10.57;;;;;;;;;;4994280;28;20038;-68
2022/12/01 13:24:42;;;;;;;10.23;9.45;;;;;;;;;;4991597;28;20033;-69
2022/12/01 13:27:18;;;;;;;13.45;12.23;;;;;;;;;;4993102;28;20077;-69
2022/12/01 13:29:47;;;;;;;10.60;9.80;;;;;;;;;;4995344;28;20022;-69
2022/12/01 13:32:42;;;;;;;12.65;11.27;;;;;;;;;;4996260;28;20030;-69
2022/12/01 13:35:22;;;;;;;11.70;10.60;;;;;;;;;;4986274;28;20042;-69
2022/12/01 13:37:48;;;;;;;12.53;11.63;;;;;;;;;;4995906;28;20056;-68
2022/12/01 13:40:23;;;;;;;11.63;10.68;;;;;;;;;;4998191;28;20841;-67
2022/12/01 13:43:19;;;;;;;11.23;10.32;;;;;;;;;;4993616;28;20540;-66
2022/12/01 13:45:45;;;;;;;10.95;10.15;;;;;;;;;;4994450;28;20034;-67
2022/12/01 13:48:36;;;;;;;13.40;11.18;;;;;;;;;;4995970;28;20060;-66
2022/12/01 13:51:02;;;;;;;10.63;9.75;;;;;;;;;;4987010;28;20459;-65
2022/12/01 13:53:54;;;;;;;10.45;9.73;;;;;;;;;;4996666;28;20037;-65
2022/12/01 13:56:23;;;;;;;;;;;;;;;;;;4994750;28;20030;-68
2022/12/01 13:58:52;;;;;;;11.35;10.52;;;;;;;;;;4994076;28;19913;-67
2022/12/01 14:01:20;;;;;;;10.20;9.40;;;;;;;;;;4991754;28;20105;-67
2022/12/01 14:04:16;;;;;;;10.05;9.18;;;;;;;;;;4994340;28;20108;-68
2022/12/01 14:06:49;;;;;;;13.48;12.38;;;;;;;;;;4992630;28;20096;-65
2022/12/01 14:09:27;;;;;;;10.68;9.77;;;;;;;;;;4994092;28;20575;-67
2022/12/01 14:12:01;;;;;;;12.13;10.40;;;;;;;;;;4993175;28;20037;-68
2022/12/01 14:14:33;;;;;;;11.38;10.48;;;;;;;;;;4993518;28;20029;-68
2022/12/01 14:17:04;;;;;;;11.75;10.80;;;;;;;;;;4993068;28;20034;-66
2022/12/01 14:19:47;;;;;;;11.38;10.30;;;;;;;;;;4989860;28;20061;-67
2022/12/01 14:22:36;;;;;;;10.93;10.02;;;;;;;;;;4992136;28;20033;-66
2022/12/01 14:25:06;;;;;;;9.50;8.70;;;;;;;;;;4990898;28;20546;-68
2022/12/01 14:27:34;;;;;;;10.95;10.05;;;;;;;;;;4994277;28;20121;-67
2022/12/01 14:30:38;;;;;;;11.02;9.85;;;;;;;;;;4995408;28;20104;-67
2022/12/01 14:33:40;;;;;;;10.50;9.57;;;;;;;;;;4994768;28;20492;-67
2022/12/01 14:36:14;;;;;;;10.57;9.70;;;;;;;;;;4988447;28;20522;-67
2022/12/01 14:38:39;;;;;;;9.73;8.95;;;;;;;;;;4993603;28;20066;-67
2022/12/01 14:41:13;;;;;;;11.18;10.35;;;;;;;;;;4991846;28;20061;-67
2022/12/01 14:46:28;;;;;;;12.18;11.10;;;;;;;;;;4993271;28;20096;-68
2022/12/01 14:48:54;;;;;;;10.75;10.00;;;;;;;;;;4994977;28;20029;-67
2022/12/01 14:51:31;;;;;;;11.45;10.52;;;;;;;;;;4992446;28;20030;-69
2022/12/01 14:53:58;;;;;;;10.63;9.82;;;;;;;;;;4989564;28;20132;-68
2022/12/01 14:56:25;;;;;;;10.23;9.50;;;;;;;;;;4993256;28;20034;-68
2022/12/01 14:58:51;;;;;;;9.52;8.82;;;;;;;;;;4989016;28;20037;-68